createdAt,value
2022-08-05T00:00:50.324Z,0.00
2022-08-05T00:01:49.587Z,0.00
2022-08-05T00:02:51.140Z,0.00
2022-08-05T00:03:48.381Z,0.00
2022-08-05T00:04:55.262Z,0.00
2022-08-05T00:06:06.680Z,0.00
2022-08-05T00:06:51.549Z,0.00
2022-08-05T00:08:32.511Z,0.00
2022-08-05T00:08:48.585Z,0.00
2022-08-05T00:09:48.337Z,0.00
2022-08-05T00:10:48.078Z,0.00
2022-08-05T00:11:55.638Z,0.00
2022-08-05T00:12:56.466Z,0.00
2022-08-05T00:13:53.249Z,0.00
2022-08-05T00:14:48.045Z,0.00
2022-08-05T00:15:55.550Z,0.00
2022-08-05T00:16:53.743Z,0.00
2022-08-05T00:18:08.282Z,0.00
2022-08-05T00:18:48.069Z,0.00
2022-08-05T00:20:02.230Z,0.00
2022-08-05T00:20:49.047Z,0.00
2022-08-05T00:21:48.213Z,0.00
2022-08-05T00:22:57.515Z,0.00
2022-08-05T00:24:05.015Z,0.00
2022-08-05T00:24:55.112Z,0.00
2022-08-05T00:25:49.146Z,0.00
2022-08-05T00:26:50.744Z,0.00
2022-08-05T00:28:08.131Z,0.00
2022-08-05T00:28:49.315Z,0.00
2022-08-05T00:29:48.103Z,0.00
2022-08-05T00:30:52.061Z,0.00
2022-08-05T00:32:11.091Z,0.00
2022-08-05T00:32:49.314Z,0.00
2022-08-05T00:34:55.195Z,0.00
2022-08-05T00:35:03.867Z,0.00
2022-08-05T00:36:15.846Z,0.00
2022-08-05T00:37:12.710Z,0.00
2022-08-05T00:38:09.417Z,0.00
2022-08-05T00:38:47.806Z,0.00
2022-08-05T00:39:58.133Z,0.00
2022-08-05T00:40:51.810Z,0.00
2022-08-05T00:41:54.953Z,0.00
2022-08-05T00:42:49.152Z,0.00
2022-08-05T00:43:50.072Z,0.00
2022-08-05T00:44:47.731Z,0.00
2022-08-05T00:45:47.976Z,0.00
2022-08-05T00:46:47.718Z,0.00
2022-08-05T00:48:08.245Z,0.00
2022-08-05T00:48:51.520Z,0.00
2022-08-05T00:49:51.430Z,0.00
2022-08-05T00:50:47.932Z,0.00
2022-08-05T00:51:51.873Z,0.00
2022-08-05T00:52:47.916Z,0.00
2022-08-05T00:54:02.843Z,0.00
2022-08-05T00:54:48.894Z,0.00
2022-08-05T00:55:47.633Z,0.00
2022-08-05T00:56:51.440Z,0.00
2022-08-05T00:58:07.623Z,0.00
2022-08-05T00:58:47.866Z,0.00
2022-08-05T00:59:47.608Z,0.00
2022-08-05T01:00:50.102Z,0.00
2022-08-05T01:01:48.516Z,0.00
2022-08-05T01:02:47.834Z,0.00
2022-08-05T01:03:49.915Z,0.00
2022-08-05T01:04:50.300Z,0.00
2022-08-05T01:05:47.566Z,0.00
2022-08-05T01:06:48.987Z,0.00
2022-08-05T01:08:42.367Z,0.00
2022-08-05T01:08:47.957Z,0.00
2022-08-05T01:09:55.448Z,0.00
2022-08-05T01:10:52.575Z,0.00
2022-08-05T01:11:47.670Z,0.00
2022-08-05T01:12:54.257Z,0.00
2022-08-05T01:13:58.920Z,0.00
2022-08-05T01:14:48.398Z,0.00
2022-08-05T01:15:47.837Z,0.00
2022-08-05T01:16:47.609Z,0.00
2022-08-05T01:18:08.467Z,0.00
2022-08-05T01:18:48.194Z,0.00
2022-08-05T01:20:00.701Z,0.00
2022-08-05T01:20:48.566Z,0.00
2022-08-05T01:21:50.665Z,0.00
2022-08-05T01:22:47.553Z,0.00
2022-08-05T01:23:53.205Z,0.00
2022-08-05T01:24:48.533Z,0.00
2022-08-05T01:25:53.218Z,0.00
2022-08-05T01:26:48.505Z,0.00
2022-08-05T01:28:08.692Z,0.00
2022-08-05T01:28:47.486Z,0.00
2022-08-05T01:29:47.732Z,0.00
2022-08-05T01:30:53.701Z,0.00
2022-08-05T01:31:48.702Z,0.00
2022-08-05T01:32:47.453Z,0.00
2022-08-05T01:33:49.331Z,0.00
2022-08-05T01:34:47.423Z,0.00
2022-08-05T01:35:51.899Z,0.00
2022-08-05T01:36:48.407Z,0.00
2022-08-05T01:38:07.677Z,0.00
2022-08-05T01:38:49.846Z,0.00
2022-08-05T01:39:47.996Z,0.00
2022-08-05T01:40:47.385Z,0.00
2022-08-05T01:41:47.108Z,0.00
2022-08-05T01:42:47.348Z,0.00
2022-08-05T01:43:48.903Z,0.00
2022-08-05T01:44:54.184Z,0.00
2022-08-05T01:45:54.045Z,0.00
2022-08-05T01:46:48.317Z,0.00
2022-08-05T01:48:10.466Z,0.00
2022-08-05T01:48:49.428Z,0.00
2022-08-05T01:50:01.960Z,0.00
2022-08-05T01:50:50.873Z,0.00
2022-08-05T01:51:51.930Z,0.00
2022-08-05T01:52:49.979Z,0.00
2022-08-05T01:53:57.922Z,0.00
2022-08-05T01:54:48.260Z,0.00
2022-08-05T01:55:47.003Z,0.00
2022-08-05T01:58:18.879Z,0.00
2022-08-05T01:58:40.475Z,0.00
2022-08-05T01:58:47.658Z,0.00
2022-08-05T01:59:47.410Z,0.00
2022-08-05T02:00:47.404Z,0.00
2022-08-05T02:01:47.225Z,0.00
2022-08-05T02:02:54.375Z,0.00
2022-08-05T02:03:48.257Z,0.00
2022-08-05T02:04:49.446Z,0.00
2022-08-05T02:05:47.302Z,0.00
2022-08-05T02:06:47.039Z,0.00
2022-08-05T02:08:09.291Z,0.00
2022-08-05T02:08:58.444Z,0.00
2022-08-05T02:09:47.874Z,0.00
2022-08-05T02:10:47.165Z,0.00
2022-08-05T02:11:48.068Z,0.00
2022-08-05T02:12:50.932Z,0.00
2022-08-05T02:13:53.466Z,0.00
2022-08-05T02:14:48.262Z,0.00
2022-08-05T02:15:47.052Z,0.00
2022-08-05T02:16:46.813Z,0.00
2022-08-05T02:18:28.598Z,0.00
2022-08-05T02:18:48.693Z,0.00
2022-08-05T02:19:49.064Z,0.00
2022-08-05T02:20:48.917Z,0.00
2022-08-05T02:21:49.285Z,0.00
2022-08-05T02:22:49.056Z,0.00
2022-08-05T02:23:48.497Z,0.00
2022-08-05T02:24:51.377Z,0.00
2022-08-05T02:25:50.580Z,0.00
2022-08-05T02:26:53.913Z,0.00
2022-08-05T02:28:08.648Z,0.00
2022-08-05T02:28:47.947Z,0.00
2022-08-05T02:29:58.379Z,0.00
2022-08-05T02:30:51.799Z,0.00
2022-08-05T02:31:49.863Z,0.00
2022-08-05T02:32:48.693Z,0.00
2022-08-05T02:33:48.966Z,0.00
2022-08-05T02:34:54.838Z,0.00
2022-08-05T02:35:57.509Z,0.00
2022-08-05T02:36:49.831Z,0.00
2022-08-05T02:38:09.535Z,0.00
2022-08-05T02:38:53.395Z,0.00
2022-08-05T02:39:51.757Z,0.00
2022-08-05T02:40:48.448Z,0.00
2022-08-05T02:41:57.878Z,0.00
2022-08-05T02:42:53.022Z,0.00
2022-08-05T02:44:02.486Z,0.00
2022-08-05T02:44:49.796Z,0.00
2022-08-05T02:45:52.644Z,0.00
2022-08-05T02:46:58.672Z,0.00
2022-08-05T02:48:12.280Z,0.00
2022-08-05T02:48:49.876Z,0.00
2022-08-05T02:49:48.641Z,0.00
2022-08-05T02:50:47.471Z,0.00
2022-08-05T02:52:02.784Z,0.00
2022-08-05T02:52:49.510Z,0.00
2022-08-05T02:53:47.795Z,0.00
2022-08-05T02:54:51.113Z,0.00
2022-08-05T02:55:54.746Z,0.00
2022-08-05T02:56:48.730Z,0.00
2022-08-05T02:58:10.177Z,0.00
2022-08-05T02:58:51.394Z,0.00
2022-08-05T02:59:50.560Z,0.00
2022-08-05T03:00:48.340Z,0.00
2022-08-05T03:01:48.677Z,0.00
2022-08-05T03:02:47.412Z,0.00
2022-08-05T03:04:02.543Z,0.00
2022-08-05T03:04:53.352Z,0.00
2022-08-05T03:06:54.658Z,0.00
2022-08-05T03:06:56.939Z,0.00
2022-08-05T03:08:09.386Z,0.00
2022-08-05T03:08:48.187Z,0.00
2022-08-05T03:09:51.600Z,0.00
2022-08-05T03:11:53.008Z,0.00
2022-08-05T03:11:57.042Z,0.00
2022-08-05T03:12:49.404Z,0.00
2022-08-05T03:13:51.707Z,0.00
2022-08-05T03:14:49.498Z,0.00
2022-08-05T03:15:48.270Z,0.00
2022-08-05T03:16:47.543Z,0.00
2022-08-05T03:18:06.354Z,0.00
2022-08-05T03:18:48.770Z,0.00
2022-08-05T03:19:47.398Z,0.00
2022-08-05T03:20:48.871Z,0.00
2022-08-05T03:21:49.423Z,0.00
2022-08-05T03:22:50.052Z,0.00
2022-08-05T03:23:48.060Z,0.00
2022-08-05T03:24:50.797Z,0.00
2022-08-05T03:26:04.859Z,0.00
2022-08-05T03:26:49.459Z,0.00
2022-08-05T03:28:06.281Z,0.00
2022-08-05T03:28:47.983Z,0.00
2022-08-05T03:30:08.350Z,0.00
2022-08-05T03:30:48.573Z,0.00
2022-08-05T03:31:56.990Z,0.00
2022-08-05T03:32:49.137Z,0.00
2022-08-05T03:33:51.068Z,0.00
2022-08-05T03:34:50.831Z,0.00
2022-08-05T03:35:48.014Z,0.00
2022-08-05T03:36:47.289Z,0.00
2022-08-05T03:38:07.108Z,0.00
2022-08-05T03:38:53.414Z,0.00
2022-08-05T03:39:59.278Z,0.00
2022-08-05T03:40:49.057Z,0.00
2022-08-05T03:41:47.238Z,0.00
2022-08-05T03:42:52.403Z,0.00
2022-08-05T03:44:08.306Z,0.00
2022-08-05T03:44:49.109Z,0.00
2022-08-05T03:45:57.662Z,1.00
2022-08-05T03:46:49.185Z,1.00
2022-08-05T03:48:05.996Z,1.00
2022-08-05T03:48:48.208Z,1.00
2022-08-05T03:49:51.784Z,1.00
2022-08-05T03:50:47.810Z,1.00
2022-08-05T03:52:38.511Z,2.00
2022-08-05T03:54:53.503Z,2.00
2022-08-05T03:55:50.264Z,2.00
2022-08-05T03:55:54.206Z,2.00
2022-08-05T03:56:04.182Z,2.00
2022-08-05T03:56:49.962Z,2.00
2022-08-05T03:58:05.799Z,4.00
2022-08-05T03:58:48.011Z,7.00
2022-08-05T03:59:54.442Z,6.00
2022-08-05T04:00:51.712Z,6.00
2022-08-05T04:01:47.953Z,6.00
2022-08-05T04:02:57.685Z,6.00
2022-08-05T04:04:05.377Z,6.00
2022-08-05T04:04:47.652Z,6.00
2022-08-05T04:05:47.074Z,10.00
2022-08-05T04:06:51.347Z,5.00
2022-08-05T04:08:29.946Z,15.00
2022-08-05T04:08:48.610Z,15.00
2022-08-05T04:09:53.512Z,18.00
2022-08-05T04:10:48.174Z,18.00
2022-08-05T04:11:52.510Z,20.00
2022-08-05T04:13:50.137Z,0.00
2022-08-05T04:14:39.796Z,22.00
2022-08-05T04:15:38.586Z,14.00
2022-08-05T04:16:38.662Z,23.00
2022-08-05T04:17:56.169Z,19.00
2022-08-05T04:18:39.881Z,23.00
2022-08-05T04:19:38.643Z,23.00
2022-08-05T04:20:41.132Z,19.00
2022-08-05T04:22:09.129Z,21.00
2022-08-05T04:22:58.008Z,25.00
2022-08-05T04:24:05.931Z,25.00
2022-08-05T04:24:44.150Z,23.00
2022-08-05T04:26:00.224Z,25.00
2022-08-05T04:26:37.739Z,36.00
2022-08-05T04:27:43.612Z,30.00
2022-08-05T04:28:39.675Z,33.00
2022-08-05T04:29:39.450Z,20.00
2022-08-05T04:30:38.747Z,16.00
2022-08-05T04:31:39.528Z,16.00
2022-08-05T04:32:56.820Z,16.00
2022-08-05T04:34:18.826Z,20.00
2022-08-05T04:34:42.898Z,27.00
2022-08-05T04:36:16.814Z,36.00
2022-08-05T04:36:46.427Z,36.00
2022-08-05T04:38:02.245Z,34.00
2022-08-05T04:38:40.255Z,34.00
2022-08-05T04:39:39.237Z,30.00
2022-08-05T04:40:37.500Z,36.00
2022-08-05T04:41:38.730Z,36.00
2022-08-05T04:42:56.721Z,34.00
2022-08-05T04:43:40.696Z,39.00
2022-08-05T04:44:39.854Z,37.00
2022-08-05T04:45:49.098Z,39.00
2022-08-05T04:46:38.779Z,30.00
2022-08-05T04:47:47.295Z,34.00
2022-08-05T04:48:39.301Z,36.00
2022-08-05T04:49:38.388Z,36.00
2022-08-05T04:51:03.075Z,34.00
2022-08-05T04:51:39.614Z,32.00
2022-08-05T04:52:56.452Z,22.00
2022-08-05T04:53:39.103Z,31.00
2022-08-05T04:54:38.437Z,54.00
2022-08-05T04:56:11.858Z,53.00
2022-08-05T04:56:37.741Z,75.00
2022-08-05T04:57:38.487Z,83.00
2022-08-05T04:58:37.245Z,97.00
2022-08-05T04:59:40.811Z,88.00
2022-08-05T05:00:38.237Z,76.00
2022-08-05T05:02:35.688Z,90.00
2022-08-05T05:03:01.459Z,99.00
2022-08-05T05:03:42.113Z,111.00
2022-08-05T05:04:43.877Z,102.00
2022-08-05T05:06:39.867Z,108.00
2022-08-05T05:06:44.546Z,111.00
2022-08-05T05:07:39.386Z,113.00
2022-08-05T05:08:42.876Z,126.00
2022-08-05T05:09:37.975Z,148.00
2022-08-05T05:10:38.133Z,152.00
2022-08-05T05:11:54.025Z,205.00
2022-08-05T05:12:57.321Z,250.00
2022-08-05T05:13:43.029Z,280.00
2022-08-05T05:14:38.014Z,337.00
2022-08-05T05:15:57.787Z,382.00
2022-08-05T05:16:38.809Z,408.00
2022-08-05T05:17:57.067Z,396.00
2022-08-05T05:18:37.443Z,351.00
2022-08-05T05:19:44.367Z,320.00
2022-08-05T05:20:38.400Z,296.00
2022-08-05T05:21:38.152Z,288.00
2022-08-05T05:22:55.962Z,297.00
2022-08-05T05:23:50.330Z,302.00
2022-08-05T05:24:58.145Z,316.00
2022-08-05T05:25:41.045Z,334.00
2022-08-05T05:26:37.000Z,340.00
2022-08-05T05:27:44.137Z,337.00
2022-08-05T05:28:44.893Z,347.00
2022-08-05T05:30:03.363Z,335.00
2022-08-05T05:30:39.129Z,302.00
2022-08-05T05:32:29.278Z,0.00
2022-08-05T05:33:28.996Z,335.00
2022-08-05T05:34:29.322Z,306.00
2022-08-05T05:35:34.296Z,233.00
2022-08-05T05:36:30.285Z,252.00
2022-08-05T05:37:37.188Z,279.00
2022-08-05T05:38:30.226Z,293.00
2022-08-05T05:39:31.544Z,265.00
2022-08-05T05:40:30.184Z,318.00
2022-08-05T05:41:54.018Z,365.00
2022-08-05T05:42:29.186Z,353.00
2022-08-05T05:43:58.251Z,293.00
2022-08-05T05:44:36.229Z,224.00
2022-08-05T05:45:29.878Z,210.00
2022-08-05T05:46:29.113Z,204.00
2022-08-05T05:47:30.471Z,225.00
2022-08-05T05:48:30.076Z,300.00
2022-08-05T05:49:28.810Z,306.00
2022-08-05T05:50:29.053Z,278.00
2022-08-05T05:51:49.978Z,222.00
2022-08-05T05:52:33.078Z,243.00
2022-08-05T05:53:29.827Z,288.00
2022-08-05T05:54:49.941Z,272.00
2022-08-05T05:55:52.264Z,237.00
2022-08-05T05:56:31.900Z,188.00
2022-08-05T05:57:42.699Z,173.00
2022-08-05T05:58:31.588Z,185.00
2022-08-05T05:59:28.832Z,216.00
2022-08-05T06:00:31.782Z,250.00
2022-08-05T06:01:57.611Z,303.00
2022-08-05T06:02:37.411Z,313.00
2022-08-05T06:03:53.592Z,373.00
2022-08-05T06:04:29.976Z,380.00
2022-08-05T06:05:28.721Z,382.00
2022-08-05T06:06:31.368Z,442.00
2022-08-05T06:07:41.716Z,481.00
2022-08-05T06:08:32.264Z,538.00
2022-08-05T06:09:50.221Z,523.00
2022-08-05T06:10:36.610Z,544.00
2022-08-05T06:11:59.146Z,691.00
2022-08-05T06:12:29.457Z,772.00
2022-08-05T06:13:28.706Z,756.00
2022-08-05T06:14:29.452Z,768.00
2022-08-05T06:16:27.452Z,744.00
2022-08-05T06:16:32.664Z,811.00
2022-08-05T06:17:30.847Z,674.00
2022-08-05T06:18:31.351Z,602.00
2022-08-05T06:19:34.834Z,599.00
2022-08-05T06:20:29.361Z,576.00
2022-08-05T06:21:50.582Z,623.00
2022-08-05T06:22:28.359Z,686.00
2022-08-05T06:23:31.984Z,840.00
2022-08-05T06:24:29.342Z,834.00
2022-08-05T06:26:12.868Z,864.00
2022-08-05T06:26:33.822Z,897.00
2022-08-05T06:28:11.284Z,921.00
2022-08-05T06:28:28.855Z,894.00
2022-08-05T06:29:49.538Z,916.00
2022-08-05T06:30:29.664Z,968.00
2022-08-05T06:31:50.699Z,1090.00
2022-08-05T06:32:29.246Z,1169.00
2022-08-05T06:33:33.338Z,1261.00
2022-08-05T06:34:29.655Z,1406.00
2022-08-05T06:36:07.137Z,1481.00
2022-08-05T06:36:29.595Z,1334.00
2022-08-05T06:37:56.481Z,1133.00
2022-08-05T06:38:36.735Z,1063.00
2022-08-05T06:39:29.404Z,1215.00
2022-08-05T06:40:32.300Z,1249.00
2022-08-05T06:41:50.348Z,1187.00
2022-08-05T06:42:28.128Z,1129.00
2022-08-05T06:43:57.604Z,1076.00
2022-08-05T06:44:29.508Z,1072.00
2022-08-05T06:45:44.507Z,1134.00
2022-08-05T06:46:30.026Z,1143.00
2022-08-05T06:48:12.008Z,1264.00
2022-08-05T06:48:53.825Z,1451.00
2022-08-05T06:50:00.776Z,1527.00
2022-08-05T06:50:29.258Z,1595.00
2022-08-05T06:51:49.482Z,1842.00
2022-08-05T06:52:36.784Z,1952.00
2022-08-05T06:53:29.385Z,1936.00
2022-08-05T06:54:28.240Z,1675.00
2022-08-05T06:55:29.974Z,1530.00
2022-08-05T06:56:29.214Z,1847.00
2022-08-05T06:57:57.716Z,1600.00
2022-08-05T06:58:36.577Z,1790.00
2022-08-05T06:59:29.159Z,1932.00
2022-08-05T07:00:29.708Z,1534.00
2022-08-05T07:01:52.831Z,1675.00
2022-08-05T07:02:27.926Z,1623.00
2022-08-05T07:03:32.781Z,1630.00
2022-08-05T07:04:28.924Z,1658.00
2022-08-05T07:05:37.678Z,1835.00
2022-08-05T07:06:28.904Z,2202.00
2022-08-05T07:07:35.365Z,2440.00
2022-08-05T07:08:28.381Z,2410.00
2022-08-05T07:09:32.306Z,2832.00
2022-08-05T07:10:32.402Z,2972.00
2022-08-05T07:11:51.522Z,2823.00
2022-08-05T07:12:29.797Z,2843.00
2022-08-05T07:13:56.860Z,2798.00
2022-08-05T07:14:30.520Z,2393.00
2022-08-05T07:15:34.784Z,2236.00
2022-08-05T07:17:58.597Z,2180.00
2022-08-05T07:18:01.317Z,2121.00
2022-08-05T07:18:30.379Z,1988.00
2022-08-05T07:20:10.487Z,2024.00
2022-08-05T07:20:33.381Z,2137.00
2022-08-05T07:22:00.362Z,2171.00
2022-08-05T07:22:30.012Z,2196.00
2022-08-05T07:23:29.592Z,2396.00
2022-08-05T07:24:28.539Z,2688.00
2022-08-05T07:25:56.169Z,2920.00
2022-08-05T07:26:28.761Z,2784.00
2022-08-05T07:27:57.456Z,2608.00
2022-08-05T07:28:28.720Z,2851.00
2022-08-05T07:30:25.373Z,2814.00
2022-08-05T07:30:32.088Z,2851.00
2022-08-05T07:31:55.041Z,2962.00
2022-08-05T07:32:27.720Z,3101.00
2022-08-05T07:33:37.199Z,3644.00
2022-08-05T07:34:28.890Z,4129.00
2022-08-05T07:35:56.817Z,4456.00
2022-08-05T07:36:28.025Z,4201.00
2022-08-05T07:37:29.043Z,3928.00
2022-08-05T07:38:33.580Z,4366.00
2022-08-05T07:40:26.257Z,4791.00
2022-08-05T07:40:32.838Z,5025.00
2022-08-05T07:42:13.824Z,5058.00
2022-08-05T07:42:33.699Z,5377.00
2022-08-05T07:43:27.952Z,4832.00
2022-08-05T07:44:27.016Z,4427.00
2022-08-05T07:45:56.460Z,4391.00
2022-08-05T07:46:28.435Z,3932.00
2022-08-05T07:47:27.672Z,3575.00
2022-08-05T07:49:02.983Z,3370.00
2022-08-05T07:49:28.673Z,3499.00
2022-08-05T07:50:32.377Z,3736.00
2022-08-05T07:51:54.548Z,3846.00
2022-08-05T07:52:27.403Z,3795.00
2022-08-05T07:53:36.824Z,4028.00
2022-08-05T07:54:31.391Z,4553.00
2022-08-05T07:56:05.646Z,4597.00
2022-08-05T07:57:01.155Z,4528.00
2022-08-05T07:57:42.012Z,4611.00
2022-08-05T07:58:54.699Z,5182.00
2022-08-05T07:59:39.038Z,6354.00
2022-08-05T08:00:28.571Z,7284.00
2022-08-05T08:01:52.060Z,7910.00
2022-08-05T08:02:30.668Z,8016.00
2022-08-05T08:03:44.416Z,7796.00
2022-08-05T08:04:37.832Z,7001.00
2022-08-05T08:05:28.461Z,6251.00
2022-08-05T08:06:28.098Z,5984.00
2022-08-05T08:07:28.423Z,6106.00
2022-08-05T08:08:27.697Z,6510.00
2022-08-05T08:09:29.081Z,7124.00
2022-08-05T08:10:27.188Z,7717.00
2022-08-05T08:11:58.958Z,7978.00
2022-08-05T08:12:48.862Z,8474.00
2022-08-05T08:13:29.131Z,8649.00
2022-08-05T08:14:27.167Z,8799.00
2022-08-05T08:16:33.619Z,8341.00
2022-08-05T08:16:49.880Z,7627.00
2022-08-05T08:17:28.347Z,7104.00
2022-08-05T08:18:27.101Z,7247.00
2022-08-05T08:20:21.495Z,8087.00
2022-08-05T08:20:45.129Z,8294.00
2022-08-05T08:21:50.285Z,8129.00
2022-08-05T08:22:27.140Z,8067.00
2022-08-05T08:24:01.193Z,8321.00
2022-08-05T08:24:51.076Z,8231.00
2022-08-05T08:26:00.537Z,7347.00
2022-08-05T08:26:29.920Z,7285.00
2022-08-05T08:27:39.953Z,8225.00
2022-08-05T08:28:36.586Z,8914.00
2022-08-05T08:30:03.794Z,10004.00
2022-08-05T08:30:37.733Z,10198.00
2022-08-05T08:31:50.260Z,9788.00
2022-08-05T08:32:28.905Z,9144.00
2022-08-05T08:33:29.219Z,8926.00
2022-08-05T08:34:30.658Z,9552.00
2022-08-05T08:35:29.298Z,9257.00
2022-08-05T08:36:47.603Z,8466.00
2022-08-05T08:37:29.327Z,8458.00
2022-08-05T08:38:36.044Z,8969.00
2022-08-05T08:39:29.429Z,9519.00
2022-08-05T08:40:27.176Z,9501.00
2022-08-05T08:41:52.295Z,10817.00
2022-08-05T08:42:34.172Z,10643.00
2022-08-05T08:45:23.663Z,9448.00
2022-08-05T08:45:25.060Z,7845.00
2022-08-05T08:45:29.614Z,7109.00
2022-08-05T08:46:26.306Z,7433.00
2022-08-05T08:48:05.528Z,7900.00
2022-08-05T08:48:42.996Z,8347.00
2022-08-05T08:50:14.636Z,8425.00
2022-08-05T08:50:52.638Z,7879.00
2022-08-05T08:52:02.873Z,6931.00
2022-08-05T08:52:27.449Z,6625.00
2022-08-05T08:53:27.164Z,5463.00
2022-08-05T08:54:27.169Z,4222.00
2022-08-05T08:56:03.140Z,3453.00
2022-08-05T08:56:27.315Z,2744.00
2022-08-05T08:57:42.118Z,2159.00
2022-08-05T08:58:43.304Z,1716.00
2022-08-05T08:59:33.829Z,1531.00
2022-08-05T09:00:27.719Z,1611.00
2022-08-05T09:01:46.942Z,1744.00
2022-08-05T09:02:28.158Z,1831.00
2022-08-05T09:03:26.906Z,1980.00
2022-08-05T09:04:30.187Z,2272.00
2022-08-05T09:05:38.509Z,2902.00
2022-08-05T09:06:29.880Z,4168.00
2022-08-05T09:07:29.011Z,5214.00
2022-08-05T09:08:30.385Z,6211.00
2022-08-05T09:09:34.570Z,7449.00
2022-08-05T09:10:29.756Z,8383.00
2022-08-05T09:11:51.346Z,11742.00
2022-08-05T09:12:27.880Z,9970.00
2022-08-05T09:13:31.400Z,10603.00
2022-08-05T09:14:56.547Z,13064.00
2022-08-05T09:15:27.932Z,10675.00
2022-08-05T09:16:26.960Z,13060.00
2022-08-05T09:17:43.253Z,13954.00
2022-08-05T09:18:27.737Z,13246.00
2022-08-05T09:19:27.878Z,10608.00
2022-08-05T09:20:37.825Z,9480.00
2022-08-05T09:22:22.078Z,9475.00
2022-08-05T09:22:32.116Z,9766.00
2022-08-05T09:23:37.341Z,9292.00
2022-08-05T09:24:27.415Z,10949.00
2022-08-05T09:26:01.346Z,7970.00
2022-08-05T09:26:32.320Z,8933.00
2022-08-05T09:28:05.338Z,8299.00
2022-08-05T09:28:32.135Z,10980.00
2022-08-05T09:29:30.857Z,10686.00
2022-08-05T09:30:26.346Z,23804.00
2022-08-05T09:32:41.821Z,9031.00
2022-08-05T09:32:45.520Z,9092.00
2022-08-05T09:33:35.108Z,8127.00
2022-08-05T09:34:27.288Z,10220.00
2022-08-05T09:35:27.612Z,7537.00
2022-08-05T09:36:27.775Z,6133.00
2022-08-05T09:38:16.825Z,5348.00
2022-08-05T09:38:29.377Z,4898.00
2022-08-05T09:39:41.248Z,4947.00
2022-08-05T09:40:27.300Z,4592.00
2022-08-05T09:41:49.979Z,4695.00
2022-08-05T09:42:28.114Z,5026.00
2022-08-05T09:43:26.483Z,6414.00
2022-08-05T09:44:26.224Z,9552.00
2022-08-05T09:46:06.438Z,12444.00
2022-08-05T09:46:28.467Z,19001.00
2022-08-05T09:47:28.601Z,28953.00
2022-08-05T09:48:28.495Z,22854.00
2022-08-05T09:49:54.643Z,34963.00
2022-08-05T09:50:37.427Z,34623.00
2022-08-05T09:51:49.930Z,35926.00
2022-08-05T09:52:26.765Z,35753.00
2022-08-05T09:53:54.834Z,34729.00
2022-08-05T09:54:29.325Z,28419.00
2022-08-05T09:55:58.579Z,16375.00
2022-08-05T09:56:27.517Z,38935.00
2022-08-05T09:57:26.298Z,41477.00
2022-08-05T09:58:26.548Z,10289.00
2022-08-05T09:59:27.496Z,38738.00
2022-08-05T10:00:26.777Z,8960.00
2022-08-05T10:01:46.475Z,6756.00
2022-08-05T10:02:26.825Z,6621.00
2022-08-05T10:03:26.228Z,7396.00
2022-08-05T10:04:29.286Z,5796.00
2022-08-05T10:05:26.730Z,4116.00
2022-08-05T10:06:26.454Z,2988.00
2022-08-05T10:08:10.997Z,2308.00
2022-08-05T10:08:37.384Z,2030.00
2022-08-05T10:09:28.117Z,1985.00
2022-08-05T10:10:28.185Z,2090.00
2022-08-05T10:11:48.138Z,2177.00
2022-08-05T10:12:31.616Z,2244.00
2022-08-05T10:13:27.165Z,2308.00
2022-08-05T10:14:26.658Z,3124.00
2022-08-05T10:15:26.155Z,5293.00
2022-08-05T10:16:25.947Z,24404.00
2022-08-05T10:17:37.613Z,16273.00
2022-08-05T10:18:26.887Z,8503.00
2022-08-05T10:20:02.883Z,26529.00
2022-08-05T10:20:26.866Z,38038.00
2022-08-05T10:21:46.175Z,9440.00
2022-08-05T10:22:29.779Z,10465.00
2022-08-05T10:23:55.233Z,9413.00
2022-08-05T10:24:27.140Z,9691.00
2022-08-05T10:25:49.071Z,48260.00
2022-08-05T10:26:32.750Z,11669.00
2022-08-05T10:28:13.104Z,36169.00
2022-08-05T10:28:30.319Z,42331.00
2022-08-05T10:31:20.103Z,11020.00
2022-08-05T10:31:21.102Z,9428.00
2022-08-05T10:32:53.302Z,45396.00
2022-08-05T10:32:54.908Z,18334.00
2022-08-05T10:33:28.905Z,39656.00
2022-08-05T10:34:44.173Z,52516.00
2022-08-05T10:35:33.632Z,37794.00
2022-08-05T10:36:26.662Z,44724.00
2022-08-05T10:38:05.905Z,51905.00
2022-08-05T10:38:26.268Z,51632.00
2022-08-05T10:40:19.518Z,52256.00
2022-08-05T10:40:27.919Z,12242.00
2022-08-05T10:41:47.102Z,8178.00
2022-08-05T10:42:32.415Z,7269.00
2022-08-05T10:43:26.840Z,6264.00
2022-08-05T10:44:26.563Z,5310.00
2022-08-05T10:45:39.984Z,4197.00
2022-08-05T10:46:27.050Z,3509.00
2022-08-05T10:47:31.085Z,3191.00
2022-08-05T10:48:31.892Z,3363.00
2022-08-05T10:49:33.413Z,2958.00
2022-08-05T10:50:35.159Z,2914.00
2022-08-05T10:51:59.638Z,3983.00
2022-08-05T10:52:26.957Z,3937.00
2022-08-05T10:53:25.722Z,40280.00
2022-08-05T10:54:29.853Z,38299.00
2022-08-05T10:55:26.825Z,43588.00
2022-08-05T10:56:26.136Z,8279.00
2022-08-05T10:57:25.777Z,26070.00
2022-08-05T10:58:35.886Z,43828.00
2022-08-05T11:00:03.223Z,47822.00
2022-08-05T11:00:27.484Z,45739.00
2022-08-05T11:01:54.636Z,46867.00
2022-08-05T11:02:38.182Z,51786.00
2022-08-05T11:03:27.201Z,54550.00
2022-08-05T11:04:26.244Z,52067.00
2022-08-05T11:05:29.132Z,51194.00
2022-08-05T11:06:30.816Z,47477.00
2022-08-05T11:07:33.174Z,45843.00
2022-08-05T11:08:38.155Z,57273.00
2022-08-05T11:09:39.163Z,54139.00
2022-08-05T11:10:27.207Z,50192.00
2022-08-05T11:11:52.518Z,18784.00
2022-08-05T11:12:27.108Z,14396.00
2022-08-05T11:13:25.346Z,49763.00
2022-08-05T11:14:42.831Z,54550.00
2022-08-05T11:15:59.306Z,53481.00
2022-08-05T11:16:47.944Z,50309.00
2022-08-05T11:17:58.883Z,49004.00
2022-08-05T11:18:26.721Z,55918.00
2022-08-05T11:20:10.473Z,54538.00
2022-08-05T11:20:26.719Z,51781.00
2022-08-05T11:21:49.539Z,47789.00
2022-08-05T11:22:25.264Z,43946.00
2022-08-05T11:23:33.568Z,27389.00
2022-08-05T11:24:30.535Z,11495.00
2022-08-05T11:26:04.486Z,10132.00
2022-08-05T11:26:28.075Z,6616.00
2022-08-05T11:27:26.464Z,6380.00
2022-08-05T11:28:26.835Z,6383.00
2022-08-05T11:29:25.404Z,6147.00
2022-08-05T11:30:25.145Z,6607.00
2022-08-05T11:31:58.789Z,6992.00
2022-08-05T11:32:26.238Z,11309.00
2022-08-05T11:33:25.498Z,12974.00
2022-08-05T11:34:26.338Z,7037.00
2022-08-05T11:35:26.230Z,6603.00
2022-08-05T11:36:34.257Z,6708.00
2022-08-05T11:38:30.911Z,7120.00
2022-08-05T11:38:36.562Z,7033.00
2022-08-05T11:39:27.120Z,6472.00
2022-08-05T11:40:24.989Z,6479.00
2022-08-05T11:42:01.322Z,9287.00
2022-08-05T11:42:27.914Z,7669.00
2022-08-05T11:44:06.777Z,7077.00
2022-08-05T11:44:41.285Z,10293.00
2022-08-05T11:46:15.594Z,14154.00
2022-08-05T11:46:32.464Z,17341.00
2022-08-05T11:47:49.751Z,7434.00
2022-08-05T11:48:26.428Z,6316.00
2022-08-05T11:49:25.165Z,6485.00
2022-08-05T11:50:25.402Z,6394.00
2022-08-05T11:51:49.415Z,6448.00
2022-08-05T11:52:29.089Z,6415.00
2022-08-05T11:53:25.150Z,6282.00
2022-08-05T11:54:33.508Z,6911.00
2022-08-05T11:55:32.370Z,7235.00
2022-08-05T11:56:41.168Z,7253.00
2022-08-05T11:57:27.042Z,8009.00
2022-08-05T11:58:25.131Z,7865.00
2022-08-05T11:59:25.357Z,8214.00
2022-08-05T12:00:25.092Z,7953.00
2022-08-05T12:01:46.865Z,8132.00
2022-08-05T12:02:31.181Z,7923.00
2022-08-05T12:03:31.750Z,7986.00
2022-08-05T12:04:26.122Z,8069.00
2022-08-05T12:05:32.172Z,7645.00
2022-08-05T12:06:26.100Z,7854.00
2022-08-05T12:08:02.606Z,8064.00
2022-08-05T12:08:26.178Z,8400.00
2022-08-05T12:09:52.754Z,8216.00
2022-08-05T12:10:43.567Z,7962.00
2022-08-05T12:11:47.945Z,8348.00
2022-08-05T12:12:25.820Z,7949.00
2022-08-05T12:13:47.602Z,8332.00
2022-08-05T12:14:25.154Z,8306.00
2022-08-05T12:15:33.229Z,8028.00
2022-08-05T12:16:27.124Z,8188.00
2022-08-05T12:18:04.243Z,8824.00
2022-08-05T12:18:27.449Z,8267.00
2022-08-05T12:20:26.436Z,8460.00
2022-08-05T12:20:33.547Z,7509.00
2022-08-05T12:21:45.968Z,6381.00
2022-08-05T12:22:26.621Z,6547.00
2022-08-05T12:23:26.897Z,6708.00
2022-08-05T12:24:26.678Z,5961.00
2022-08-05T12:25:28.553Z,5933.00
2022-08-05T12:26:26.798Z,6422.00
2022-08-05T12:27:25.466Z,6921.00
2022-08-05T12:28:27.838Z,6684.00
2022-08-05T12:29:26.670Z,6232.00
2022-08-05T12:30:32.066Z,6590.00
2022-08-05T12:31:49.845Z,6403.00
2022-08-05T12:32:26.998Z,5880.00
2022-08-05T12:33:27.818Z,6244.00